createdAt,value
2017-04-27T00:01:38.295Z,0
2017-04-27T00:06:33.783Z,0
2017-04-27T00:11:29.373Z,0
2017-04-27T00:16:25.257Z,0
2017-04-27T00:21:20.989Z,0
2017-04-27T00:26:16.673Z,0
2017-04-27T00:31:12.418Z,0
2017-04-27T00:36:08.007Z,0
2017-04-27T00:41:03.591Z,0
2017-04-27T00:45:59.295Z,0
2017-04-27T00:50:55.503Z,0
2017-04-27T00:55:51.212Z,0
2017-04-27T01:00:47.448Z,0
2017-04-27T01:05:43.223Z,0
2017-04-27T01:10:38.985Z,0
2017-04-27T01:15:34.509Z,0
2017-04-27T01:20:30.190Z,0
2017-04-27T01:25:25.921Z,0
2017-04-27T01:30:21.699Z,0
2017-04-27T01:35:17.240Z,0
2017-04-27T01:40:13.327Z,0
2017-04-27T01:45:08.659Z,0
2017-04-27T01:50:04.681Z,0
2017-04-27T01:55:00.253Z,0
2017-04-27T01:59:55.981Z,0
2017-04-27T02:04:51.621Z,0
2017-04-27T02:09:47.411Z,0
2017-04-27T02:14:43.092Z,0
2017-04-27T02:19:38.687Z,0
2017-04-27T02:24:34.368Z,0
2017-04-27T02:29:29.696Z,0
2017-04-27T02:34:25.612Z,0
2017-04-27T02:39:20.979Z,0
2017-04-27T02:44:16.471Z,0
2017-04-27T02:49:12.786Z,0
2017-04-27T02:54:08.723Z,0
2017-04-27T02:59:04.492Z,0
2017-04-27T03:04:00.010Z,0
2017-04-27T03:08:55.768Z,0
2017-04-27T03:13:51.420Z,0
2017-04-27T03:18:49.051Z,0
2017-04-27T03:23:44.019Z,0
2017-04-27T03:28:39.501Z,0
2017-04-27T03:33:38.514Z,0
2017-04-27T03:38:33.708Z,4
2017-04-27T03:43:29.279Z,8
2017-04-27T03:48:25.198Z,16
2017-04-27T03:53:20.789Z,36
2017-04-27T03:58:16.456Z,64
2017-04-27T04:03:11.986Z,108
2017-04-27T04:08:07.647Z,172
2017-04-27T04:13:04.302Z,252
2017-04-27T04:17:59.580Z,348
2017-04-27T04:22:55.089Z,460
2017-04-27T04:27:51.794Z,588
2017-04-27T04:32:47.216Z,724
2017-04-27T04:37:42.711Z,864
2017-04-27T04:42:38.971Z,1008
2017-04-27T04:47:34.910Z,1184
2017-04-27T04:52:30.571Z,1480
2017-04-27T04:57:26.646Z,2040
2017-04-27T05:02:22.394Z,2196
2017-04-27T05:07:18.273Z,2108
2017-04-27T05:12:14.531Z,2008
2017-04-27T05:17:10.272Z,2052
2017-04-27T05:22:06.175Z,2136
2017-04-27T05:27:02.216Z,2192
2017-04-27T05:31:58.593Z,2260
2017-04-27T05:36:54.385Z,2336
2017-04-27T05:41:50.095Z,2396
2017-04-27T05:46:45.932Z,2496
2017-04-27T05:51:41.671Z,2576
2017-04-27T05:56:37.473Z,2668
2017-04-27T06:01:33.338Z,2688
2017-04-27T06:06:29.726Z,2712
2017-04-27T06:11:25.673Z,2676
2017-04-27T06:16:21.320Z,2696
2017-04-27T06:21:17.825Z,2744
2017-04-27T06:26:13.252Z,2908
2017-04-27T06:31:09.184Z,2788
2017-04-27T06:36:04.861Z,2836
2017-04-27T06:41:00.499Z,2868
2017-04-27T06:45:56.190Z,2960
2017-04-27T06:50:52.281Z,3000
2017-04-27T06:55:47.908Z,3044
2017-04-27T07:00:43.657Z,3224
2017-04-27T07:05:39.460Z,3256
2017-04-27T07:10:35.570Z,3296
2017-04-27T07:15:31.299Z,3480
2017-04-27T07:20:27.210Z,3756
2017-04-27T07:25:23.049Z,3992
2017-04-27T07:30:19.027Z,6348
2017-04-27T07:35:15.802Z,3972
2017-04-27T07:40:11.677Z,4092
2017-04-27T07:45:07.523Z,4116
2017-04-27T07:50:03.508Z,6728
2017-04-27T07:54:59.274Z,8076
2017-04-27T07:59:57.019Z,13952
2017-04-27T08:04:53.782Z,57056
2017-04-27T08:09:51.971Z,12800
2017-04-27T08:14:47.366Z,7824
2017-04-27T08:19:42.365Z,13272
2017-04-27T08:24:39.422Z,71296
2017-04-27T08:29:37.643Z,62048
2017-04-27T08:34:33.817Z,7548
2017-04-27T08:39:27.907Z,4888
2017-04-27T08:44:22.506Z,7492
2017-04-27T08:49:17.749Z,35648
2017-04-27T08:54:14.314Z,12680
2017-04-27T08:59:11.031Z,9548
2017-04-27T09:04:09.274Z,7968
2017-04-27T09:09:07.726Z,8500
2017-04-27T09:14:02.252Z,7640
2017-04-27T09:18:57.555Z,7964
2017-04-27T09:23:53.651Z,12648
2017-04-27T09:28:50.613Z,8932
2017-04-27T09:33:47.095Z,39456
2017-04-27T09:38:44.656Z,68960
2017-04-27T09:43:42.521Z,6968
2017-04-27T09:48:37.117Z,7048
2017-04-27T09:53:32.526Z,59936
2017-04-27T09:58:30.875Z,83520
2017-04-27T10:03:28.222Z,95136
2017-04-27T10:08:24.670Z,66496
2017-04-27T10:13:20.314Z,101120
2017-04-27T10:18:17.328Z,98208
2017-04-27T10:23:19.844Z,78048
2017-04-27T10:28:17.770Z,104704
2017-04-27T10:33:14.761Z,52704
2017-04-27T10:38:07.462Z,6052
2017-04-27T10:43:00.326Z,8844
2017-04-27T10:47:55.091Z,77376
2017-04-27T10:52:50.731Z,6888
2017-04-27T10:57:45.572Z,92064
2017-04-27T11:02:43.948Z,8976
2017-04-27T11:07:38.316Z,8520
2017-04-27T11:17:33.615Z,82496
2017-04-27T11:22:35.241Z,97952
2017-04-27T11:27:32.426Z,88512
2017-04-27T11:32:29.325Z,100416
2017-04-27T11:37:27.155Z,99360
2017-04-27T11:42:23.884Z,23616
2017-04-27T11:47:16.509Z,7596
2017-04-27T11:52:09.535Z,9000
2017-04-27T11:57:05.382Z,82144
2017-04-27T12:02:00.538Z,17792
2017-04-27T12:06:57.623Z,33152
2017-04-27T12:11:56.495Z,59872
2017-04-27T12:16:54.017Z,54656
2017-04-27T12:21:50.547Z,40448
2017-04-27T12:26:44.175Z,16768
2017-04-27T12:31:37.733Z,58720
2017-04-27T12:36:34.508Z,13176
2017-04-27T12:41:28.209Z,16032
2017-04-27T12:46:25.421Z,77920
2017-04-27T12:51:24.423Z,88160
2017-04-27T12:56:21.481Z,68512
2017-04-27T13:01:14.790Z,26624
2017-04-27T13:06:10.114Z,40064
2017-04-27T13:11:04.567Z,39200
2017-04-27T13:16:01.105Z,14644
2017-04-27T13:20:55.627Z,13948
2017-04-27T13:25:52.119Z,24000
2017-04-27T13:30:47.037Z,15704
2017-04-27T13:35:42.314Z,22944
2017-04-27T13:40:38.158Z,15824
2017-04-27T13:45:33.900Z,15456
2017-04-27T13:50:29.354Z,9180
2017-04-27T13:55:24.956Z,9740
2017-04-27T14:05:24.958Z,9844
2017-04-27T14:10:21.283Z,12448
2017-04-27T14:15:16.763Z,13208
2017-04-27T14:20:13.503Z,11336
2017-04-27T14:25:10.138Z,7868
2017-04-27T14:30:06.472Z,6380
2017-04-27T14:35:02.479Z,6828
2017-04-27T14:39:57.800Z,6148
2017-04-27T14:44:53.026Z,5944
2017-04-27T14:49:51.177Z,5724
2017-04-27T14:59:52.502Z,5728
2017-04-27T15:04:48.601Z,6844
2017-04-27T15:09:52.104Z,7108
2017-04-27T15:14:45.975Z,7508
2017-04-27T15:19:41.455Z,6436
2017-04-27T15:24:39.729Z,6524
2017-04-27T15:29:35.481Z,7168
2017-04-27T15:34:30.921Z,7320
2017-04-27T15:39:27.015Z,7120
2017-04-27T15:44:23.354Z,7660
2017-04-27T15:49:20.368Z,7900
2017-04-27T15:54:15.644Z,7668
2017-04-27T15:59:11.731Z,6304
2017-04-27T16:04:07.193Z,5308
2017-04-27T16:09:02.829Z,4328
2017-04-27T16:13:58.385Z,3528
2017-04-27T16:18:53.994Z,2976
2017-04-27T16:23:49.627Z,3432
2017-04-27T16:28:46.040Z,3640
2017-04-27T16:33:42.068Z,3116
2017-04-27T16:38:40.532Z,3348
2017-04-27T16:43:35.757Z,2984
2017-04-27T16:48:32.768Z,2272
2017-04-27T16:53:27.908Z,2356
2017-04-27T16:58:23.445Z,2256
2017-04-27T17:03:19.605Z,2348
2017-04-27T17:08:15.194Z,2100
2017-04-27T17:13:10.957Z,1876
2017-04-27T17:18:06.709Z,1768
2017-04-27T17:23:03.236Z,1780
2017-04-27T17:27:59.453Z,1692
2017-04-27T17:32:55.286Z,1652
2017-04-27T17:37:50.589Z,1608
2017-04-27T17:42:46.736Z,1440
2017-04-27T17:47:42.140Z,1312
2017-04-27T17:52:38.020Z,1156
2017-04-27T17:57:33.893Z,1012
2017-04-27T18:02:30.113Z,912
2017-04-27T18:17:25.802Z,600
2017-04-27T18:22:21.417Z,512
2017-04-27T18:27:16.892Z,440
2017-04-27T18:37:11.809Z,296
2017-04-27T18:42:08.133Z,192
2017-04-27T18:47:04.571Z,128
2017-04-27T18:52:06.054Z,72
2017-04-27T18:57:00.386Z,40
2017-04-27T19:06:58.630Z,16
2017-04-27T19:11:54.291Z,8
2017-04-27T19:16:52.552Z,4
2017-04-27T19:26:49.494Z,0
2017-04-27T19:36:46.956Z,0
2017-04-27T19:41:42.526Z,0
2017-04-27T19:46:38.903Z,0
2017-04-27T19:56:38.060Z,0
2017-04-27T20:01:33.343Z,0
2017-04-27T20:06:28.843Z,0
2017-04-27T20:11:28.097Z,0
2017-04-27T20:16:25.738Z,0
2017-04-27T20:21:20.775Z,0
2017-04-27T20:26:19.554Z,0
2017-04-27T20:31:14.617Z,0
2017-04-27T20:36:10.922Z,0
2017-04-27T20:41:06.808Z,0
2017-04-27T20:46:06.507Z,0
2017-04-27T20:51:04.701Z,0
2017-04-27T20:55:59.945Z,0
2017-04-27T21:00:55.604Z,0
2017-04-27T21:05:52.310Z,0
2017-04-27T21:10:48.086Z,0
2017-04-27T21:20:44.179Z,0
2017-04-27T21:30:43.446Z,0
2017-04-27T21:35:42.307Z,0
2017-04-27T21:40:40.007Z,0
2017-04-27T21:45:37.866Z,0
2017-04-27T21:50:48.203Z,0
2017-04-27T21:55:41.668Z,0
2017-04-27T22:00:42.246Z,0
2017-04-27T22:05:38.977Z,0
2017-04-27T22:10:37.869Z,0
2017-04-27T22:20:34.208Z,0
2017-04-27T22:25:29.210Z,0
2017-04-27T22:45:36.193Z,0
2017-04-27T22:50:32.110Z,0
2017-04-27T22:55:28.850Z,0
2017-04-27T23:05:24.209Z,0
2017-04-27T23:10:20.248Z,0
2017-04-27T23:15:16.472Z,0
2017-04-27T23:20:12.014Z,0
2017-04-27T23:25:11.395Z,0
2017-04-27T23:30:07.240Z,0
2017-04-27T23:35:02.772Z,0
2017-04-27T23:39:59.135Z,0
2017-04-27T23:49:56.205Z,0
2017-04-27T23:54:52.032Z,0
